Time;durP1;ratioP1;P1;durP2;ratioP2;P2;SDS_P1;SDS_P2;PMS_P1;PMS_P2;Temp;Humidity;BMP_temperature;BMP_pressure;BME280_temperature;BME280_humidity;BME280_pressure;Samples;Min_cycle;Max_cycle;Signal;HPM_P1;HPM_P2
2022/07/04 08:58:58;;;;;;;2.78;2.00;;;;;;;24.99;43.61;101970.47;495545;28;20812;-88
2022/07/04 09:01:54;;;;;;;4.05;1.80;;;;;;;25.05;43.08;101952.06;4749832;30;20421;-93
2022/07/04 09:04:41;;;;;;;4.13;2.08;;;;;;;24.97;42.91;101945.81;4767267;29;20597;-96
2022/07/04 09:07:17;;;;;;;3.65;1.90;;;;;;;25.18;42.91;101966.38;4732060;30;20056;-90
2022/07/04 09:13:07;;;;;;;2.78;1.95;;;;;;;25.63;41.83;101971.53;4722215;30;20056;-94
2022/07/04 09:15:42;;;;;;;5.05;1.88;;;;;;;25.24;42.40;101951.47;4689742;30;20047;-89
2022/07/04 09:18:22;;;;;;;4.43;2.35;;;;;;;25.36;42.33;101965.13;4667579;30;20125;-90
2022/07/04 09:24:45;;;;;;;3.78;2.30;;;;;;;25.51;41.99;101964.06;4740293;30;20059;-87
2022/07/04 09:27:49;;;;;;;4.65;1.88;;;;;;;25.54;41.81;101962.88;4718424;30;20051;-91
2022/07/04 09:30:32;;;;;;;2.88;1.60;;;;;;;25.50;41.62;101945.59;4716833;30;20052;-92
2022/07/04 09:33:52;;;;;;;4.05;2.08;;;;;;;25.49;42.12;101981.25;4673319;24;21601;-67
2022/07/04 09:36:26;;;;;;;3.70;1.80;;;;;;;25.54;41.67;101981.53;4745886;30;20083;-69
2022/07/04 09:39:05;;;;;;;2.90;1.60;;;;;;;25.61;41.59;101982.41;4753123;30;20054;-66
2022/07/04 09:41:34;;;;;;;3.60;2.08;;;;;;;25.61;41.33;101988.56;4754393;30;20094;-66
2022/07/04 09:44:06;;;;;;;3.05;1.77;;;;;;;25.55;41.03;101989.34;4754474;30;20596;-65
2022/07/04 09:46:33;;;;;;;2.25;1.83;;;;;;;25.69;41.09;101992.19;4754096;30;20052;-64
2022/07/04 09:48:59;;;;;;;2.80;2.20;;;;;;;25.72;40.85;101989.13;4742936;30;20047;-68
2022/07/04 09:51:45;;;;;;;5.47;2.60;;;;;;;25.78;40.96;101980.34;4740962;30;20817;-67
2022/07/04 09:54:34;;;;;;;1.77;1.60;;;;;;;25.73;41.02;101980.09;4753593;30;20043;-70
2022/07/04 09:57:02;;;;;;;3.70;2.22;;;;;;;25.90;40.58;101986.81;4758361;30;20782;-67
2022/07/04 09:59:29;;;;;;;1.83;1.73;;;;;;;25.95;40.99;101967.56;4760922;30;20050;-66
2022/07/04 10:02:10;;;;;;;2.40;1.67;;;;;;;25.67;41.17;101967.47;4755375;30;20062;-65
2022/07/04 10:04:42;;;;;;;4.50;2.00;;;;;;;25.67;41.05;101975.47;4756075;29;20467;-68
2022/07/04 10:07:08;;;;;;;3.83;1.95;;;;;;;25.80;40.66;101986.31;4745207;30;20368;-64
2022/07/04 10:09:33;;;;;;;6.07;1.90;;;;;;;25.86;40.44;101983.72;4759481;30;20043;-67
2022/07/04 10:11:59;;;;;;;3.53;1.77;;;;;;;25.93;40.14;101969.59;4757758;30;20044;-65
2022/07/04 10:14:24;;;;;;;2.28;1.60;;;;;;;25.86;40.01;101966.88;4756613;30;20043;-67
2022/07/04 10:16:50;;;;;;;3.15;1.92;;;;;;;25.87;39.87;101980.03;4760965;30;20100;-68
2022/07/04 10:19:16;;;;;;;4.03;1.90;;;;;;;25.80;39.60;101981.78;4760310;30;20050;-69
2022/07/04 10:21:45;;;;;;;2.40;1.75;;;;;;;25.83;39.72;101981.41;4754142;30;20077;-69
2022/07/04 10:24:10;;;;;;;2.47;1.73;;;;;;;25.84;39.26;101980.38;4760370;30;20576;-69
2022/07/04 10:26:36;;;;;;;2.08;1.77;;;;;;;25.99;38.89;101976.81;4760933;30;20076;-70
2022/07/04 10:29:02;;;;;;;2.10;1.90;;;;;;;25.76;39.00;101966.38;4721236;30;20141;-68
2022/07/04 10:31:29;;;;;;;2.80;2.00;;;;;;;25.95;38.22;101981.72;4757193;30;20067;-71
2022/07/04 10:33:57;;;;;;;3.95;2.10;;;;;;;25.98;38.41;101980.50;4758635;30;20071;-68
2022/07/04 10:36:28;;;;;;;2.38;1.90;;;;;;;26.01;37.97;101983.63;4758928;30;20438;-70
2022/07/04 10:39:02;;;;;;;1.92;1.73;;;;;;;26.07;38.36;101972.19;4759754;29;20051;-72
2022/07/04 10:41:29;;;;;;;3.13;2.05;;;;;;;26.07;38.55;101979.38;4759282;30;20131;-65
2022/07/04 10:44:15;;;;;;;3.40;2.03;;;;;;;26.03;38.32;101976.25;4748294;30;20131;-67
2022/07/04 10:46:49;;;;;;;2.13;1.73;;;;;;;26.07;38.22;101972.19;4759435;30;20050;-67
2022/07/04 10:49:15;;;;;;;2.38;1.90;;;;;;;26.05;38.38;101970.72;4759758;30;20640;-69
2022/07/04 10:52:10;;;;;;;3.35;2.00;;;;;;;26.01;38.27;101964.94;4752175;29;20050;-65
2022/07/04 10:54:38;;;;;;;3.40;1.73;;;;;;;26.02;38.55;101968.41;4756277;30;20368;-67
2022/07/04 10:57:37;;;;;;;2.28;1.80;;;;;;;26.02;38.39;101963.91;4744396;30;20628;-68
2022/07/04 11:00:07;;;;;;;5.27;2.03;;;;;;;26.16;38.39;101971.00;4735745;30;20079;-72
2022/07/04 11:02:38;;;;;;;2.95;2.20;;;;;;;26.09;38.40;101977.31;4739298;30;20126;-73
2022/07/04 11:05:08;;;;;;;4.63;1.90;;;;;;;26.07;38.06;101968.69;4746329;30;20043;-69
2022/07/04 11:07:36;;;;;;;2.47;2.03;;;;;;;26.09;38.07;101962.13;4730599;29;20040;-70
2022/07/04 11:10:11;;;;;;;2.67;1.95;;;;;;;26.11;38.29;101964.59;4728835;30;20442;-70
2022/07/04 11:12:55;;;;;;;3.35;1.90;;;;;;;26.06;38.66;101967.88;4741427;30;20059;-71
2022/07/04 11:15:32;;;;;;;2.55;2.10;;;;;;;25.72;39.02;101970.44;4749567;30;20043;-72
2022/07/04 11:18:04;;;;;;;3.65;2.05;;;;;;;25.82;38.77;101969.09;4753409;30;20156;-81
2022/07/04 11:20:32;;;;;;;3.15;2.13;;;;;;;25.72;39.11;101968.59;4752231;30;20032;-80
2022/07/04 11:23:05;;;;;;;2.83;1.90;;;;;;;25.74;38.66;101979.91;4756730;30;20051;-81
2022/07/04 11:25:31;;;;;;;4.45;2.20;;;;;;;24.74;40.58;101978.91;4749858;30;20059;-80
2022/07/04 11:27:57;;;;;;;2.90;2.05;;;;;;;25.44;39.13;101965.81;4740949;30;20040;-81
2022/07/04 11:30:23;;;;;;;2.97;2.22;;;;;;;25.51;38.99;101957.91;4754704;30;20434;-80
2022/07/04 11:32:48;;;;;;;3.55;2.00;;;;;;;25.49;38.99;101952.75;4756952;30;20064;-80
2022/07/04 11:35:20;;;;;;;2.88;1.98;;;;;;;25.60;38.99;101949.56;4760021;30;20121;-79
2022/07/04 11:37:45;;;;;;;3.17;2.10;;;;;;;25.61;38.55;101961.06;4757863;30;20134;-80
2022/07/04 11:45:53;;;;;;;2.15;1.70;;;;;;;25.84;38.08;101958.22;4753350;30;20047;-80
2022/07/04 11:48:26;;;;;;;3.63;2.00;;;;;;;25.79;38.49;101960.66;4757088;30;20097;-80
2022/07/04 11:50:52;;;;;;;5.13;2.35;;;;;;;25.37;38.88;101958.78;4753024;30;20488;-81
2022/07/04 11:53:19;;;;;;;2.40;2.00;;;;;;;25.41;39.24;101962.72;4749341;30;20051;-71
2022/07/04 11:56:00;;;;;;;3.45;2.10;;;;;;;25.50;39.42;101953.59;4724929;30;20044;-67
2022/07/04 11:58:42;;;;;;;4.10;2.45;;;;;;;25.64;38.86;101950.00;4700030;30;20048;-71
2022/07/04 12:01:09;;;;;;;3.70;1.92;;;;;;;25.96;37.98;101945.19;4752018;30;20044;-76
2022/07/04 12:03:35;;;;;;;4.25;2.13;;;;;;;25.96;37.79;101943.34;4763276;30;20126;-75
2022/07/04 12:06:05;;;;;;;4.38;1.75;;;;;;;25.83;36.94;101941.38;4764500;30;20048;-75
2022/07/04 12:08:31;;;;;;;2.83;1.80;;;;;;;25.89;37.46;101942.47;4758093;30;20047;-77
2022/07/04 12:10:57;;;;;;;3.85;1.92;;;;;;;25.80;37.63;101955.13;4754530;30;20056;-71
2022/07/04 12:13:24;;;;;;;3.65;1.85;;;;;;;26.05;37.02;101944.88;4745561;30;20060;-69
2022/07/04 12:15:56;;;;;;;3.53;2.00;;;;;;;25.77;37.75;101949.34;4751733;30;20395;-68
2022/07/04 12:18:31;;;;;;;3.72;1.85;;;;;;;25.94;37.49;101937.38;4752587;30;20058;-69
2022/07/04 12:21:12;;;;;;;3.88;1.85;;;;;;;26.23;36.99;101935.53;4752656;30;20044;-71
2022/07/04 12:23:39;;;;;;;2.53;1.67;;;;;;;26.08;37.41;101943.66;4750271;30;20579;-71
2022/07/04 12:26:05;;;;;;;2.90;1.90;;;;;;;25.84;38.08;101940.38;4752076;30;20036;-73
2022/07/04 12:28:37;;;;;;;3.47;1.98;;;;;;;25.72;38.00;101954.44;4732193;30;20558;-74
2022/07/04 12:31:04;;;;;;;2.75;1.90;;;;;;;25.34;36.89;101941.34;4754450;30;20390;-67
2022/07/04 12:33:29;;;;;;;2.97;1.80;;;;;;;25.47;37.49;101936.09;4755070;30;20064;-68
2022/07/04 12:36:00;;;;;;;7.22;2.33;;;;;;;25.46;37.16;101934.47;4757087;30;20067;-70
2022/07/04 12:38:29;;;;;;;2.28;1.60;;;;;;;25.64;35.09;101936.69;4757338;30;20131;-75
2022/07/04 12:40:57;;;;;;;5.90;1.83;;;;;;;25.97;35.87;101946.84;4759417;30;20499;-71
2022/07/04 12:43:26;;;;;;;1.75;1.50;;;;;;;26.07;36.21;101932.16;4725834;30;20652;-67
2022/07/04 12:45:54;;;;;;;4.10;1.67;;;;;;;25.93;35.44;101932.22;4744849;30;20042;-68
2022/07/04 12:48:28;;;;;;;3.03;1.48;;;;;;;26.04;35.28;101924.53;4751504;30;20044;-66
2022/07/04 12:50:55;;;;;;;3.65;1.98;;;;;;;26.31;35.06;101930.03;4756714;30;20051;-65
2022/07/04 12:53:21;;;;;;;3.65;1.77;;;;;;;25.96;35.67;101931.84;4754305;30;20043;-69
2022/07/04 12:55:49;;;;;;;3.10;1.80;;;;;;;26.10;35.67;101937.09;4746028;30;20063;-70
2022/07/04 12:58:15;;;;;;;5.22;1.75;;;;;;;25.63;36.30;101935.03;4755118;30;20749;-71
2022/07/04 13:00:41;;;;;;;3.60;1.90;;;;;;;26.03;35.83;101938.03;4740596;30;20052;-70
2022/07/04 13:03:07;;;;;;;4.57;2.17;;;;;;;26.04;36.07;101931.72;4737969;30;20199;-70
2022/07/04 13:05:35;;;;;;;3.63;1.77;;;;;;;26.15;35.31;101940.00;4753243;30;20781;-70
2022/07/04 13:08:01;;;;;;;3.33;1.90;;;;;;;26.22;35.43;101936.56;4752464;30;20048;-71
2022/07/04 13:10:26;;;;;;;4.13;1.90;;;;;;;26.33;35.73;101936.00;4752639;30;20040;-73
2022/07/04 13:12:52;;;;;;;4.55;1.98;;;;;;;26.37;35.62;101935.44;4737434;30;20044;-70
2022/07/04 13:15:17;;;;;;;5.25;1.92;;;;;;;26.46;35.59;101946.78;4752066;30;20051;-70
2022/07/04 13:17:43;;;;;;;1.60;1.50;;;;;;;26.60;36.00;101945.84;4730844;30;20099;-70
2022/07/04 13:20:09;;;;;;;4.38;2.13;;;;;;;26.60;35.33;101947.69;4754258;30;20538;-67
2022/07/04 13:22:35;;;;;;;3.60;2.10;;;;;;;26.80;35.19;101948.59;4753610;30;20124;-66
2022/07/04 13:25:03;;;;;;;3.28;1.80;;;;;;;26.94;35.32;101952.16;4753440;30;20469;-66
2022/07/04 13:27:29;;;;;;;1.95;1.60;;;;;;;26.96;35.77;101956.28;4739846;30;20044;-68
2022/07/04 13:29:54;;;;;;;2.67;1.70;;;;;;;26.99;35.24;101955.06;4748201;30;20051;-66
2022/07/04 13:32:20;;;;;;;5.00;1.90;;;;;;;27.13;35.38;101961.31;4752349;30;20098;-67
2022/07/04 13:34:45;;;;;;;2.78;1.60;;;;;;;27.09;35.62;101967.03;4728803;30;20052;-65
2022/07/04 13:37:11;;;;;;;5.57;1.70;;;;;;;27.13;35.60;101955.94;4765243;29;20054;-65
2022/07/04 13:39:36;;;;;;;4.43;1.77;;;;;;;27.03;36.06;101967.00;4750196;30;20105;-73
2022/07/04 13:42:03;;;;;;;2.65;1.67;;;;;;;26.88;36.54;101964.44;4744713;30;20166;-73
2022/07/04 13:44:29;;;;;;;2.63;1.65;;;;;;;26.86;36.23;101969.19;4752148;30;20044;-73
2022/07/04 13:46:56;;;;;;;3.30;2.13;;;;;;;26.85;36.62;101970.19;4752526;29;20568;-72
2022/07/04 13:49:21;;;;;;;3.78;1.88;;;;;;;26.78;36.54;101972.03;4750943;29;20833;-72
2022/07/04 13:51:47;;;;;;;3.45;2.03;;;;;;;26.79;36.27;101979.84;4729719;30;20055;-75
2022/07/04 13:54:13;;;;;;;2.47;1.75;;;;;;;26.77;36.43;101979.22;4749824;30;20052;-65
2022/07/04 13:56:39;;;;;;;2.95;1.75;;;;;;;26.78;36.88;101974.69;4743493;30;20050;-65
2022/07/04 13:59:05;;;;;;;2.65;1.73;;;;;;;26.83;36.85;101972.25;4741857;30;20051;-65
2022/07/04 14:01:30;;;;;;;3.28;1.73;;;;;;;26.79;36.90;101981.69;4752395;30;20047;-65
2022/07/04 14:03:56;;;;;;;1.60;1.50;;;;;;;26.78;36.62;101978.19;4755230;30;20664;-65
2022/07/04 14:06:21;;;;;;;3.13;1.85;;;;;;;26.77;36.80;101973.88;4752951;30;20051;-65
2022/07/04 14:08:47;;;;;;;3.92;1.92;;;;;;;26.75;36.76;101985.75;4729737;30;20131;-64
2022/07/04 14:11:13;;;;;;;2.05;1.48;;;;;;;26.71;37.08;101981.84;4756030;30;20830;-65
2022/07/04 14:13:40;;;;;;;3.20;1.60;;;;;;;26.64;37.07;101979.16;4744208;30;20052;-65
2022/07/04 14:16:06;;;;;;;4.22;1.60;;;;;;;26.61;37.17;101978.72;4753694;30;20054;-65
2022/07/04 14:18:32;;;;;;;2.97;1.88;;;;;;;26.57;37.76;101985.47;4758162;30;20048;-65
2022/07/04 14:20:58;;;;;;;2.55;1.80;;;;;;;26.57;37.93;101983.66;4749058;29;20075;-65
2022/07/04 14:23:42;;;;;;;2.00;1.45;;;;;;;26.53;37.23;101978.88;4725252;30;25422;-66
2022/07/04 14:26:13;;;;;;;4.55;1.83;;;;;;;26.51;37.77;101981.75;4755549;30;20456;-65
2022/07/04 14:28:39;;;;;;;2.38;1.60;;;;;;;26.50;37.71;101975.56;4739408;30;20036;-66
2022/07/04 14:31:05;;;;;;;3.13;1.73;;;;;;;26.48;37.64;101990.97;4757015;30;20039;-66
2022/07/04 14:33:32;;;;;;;3.33;1.63;;;;;;;26.49;37.49;101986.47;4754225;30;20074;-65
2022/07/04 14:35:59;;;;;;;2.58;1.67;;;;;;;26.44;37.63;101986.22;4753710;30;20051;-66
2022/07/04 14:38:25;;;;;;;4.22;1.83;;;;;;;26.42;37.63;101989.09;4755322;30;20063;-65
2022/07/04 14:40:50;;;;;;;3.28;1.60;;;;;;;26.41;37.66;101991.97;4733504;30;20548;-66
2022/07/04 14:43:20;;;;;;;1.95;1.45;;;;;;;26.35;37.53;101990.88;4743404;30;20097;-66
2022/07/04 14:45:46;;;;;;;4.90;1.77;;;;;;;26.36;37.05;101978.34;4759227;30;20044;-65
2022/07/04 14:48:13;;;;;;;2.85;1.63;;;;;;;26.31;37.46;101984.25;4759424;29;20043;-65
2022/07/04 14:50:39;;;;;;;1.60;1.50;;;;;;;26.31;37.30;101986.94;4757269;30;20128;-65
2022/07/04 14:53:05;;;;;;;3.22;1.40;;;;;;;26.25;37.29;101986.91;4753358;30;20483;-65
2022/07/04 14:55:30;;;;;;;2.17;1.60;;;;;;;26.27;37.39;101984.84;4733229;30;20044;-65
2022/07/04 14:57:56;;;;;;;2.00;1.73;;;;;;;26.24;37.59;101985.25;4736462;30;20047;-65
2022/07/04 15:00:21;;;;;;;2.67;1.40;;;;;;;26.20;37.59;101982.94;4758063;30;20051;-65
2022/07/04 15:02:47;;;;;;;3.05;1.45;;;;;;;26.22;37.73;101981.94;4754128;30;20040;-65
2022/07/04 15:05:13;;;;;;;2.00;1.50;;;;;;;26.19;37.49;101985.81;4751488;30;20048;-66
2022/07/04 15:07:39;;;;;;;1.65;1.38;;;;;;;26.17;37.23;101980.66;4755414;30;20050;-65
2022/07/04 15:10:07;;;;;;;3.35;1.60;;;;;;;26.16;37.54;101979.00;4758030;30;20092;-65
2022/07/04 15:12:33;;;;;;;1.92;1.45;;;;;;;26.17;37.31;101979.84;4731952;30;20043;-66
2022/07/04 15:14:59;;;;;;;3.28;1.58;;;;;;;26.12;37.82;101979.59;4744794;30;20048;-66
2022/07/04 15:17:24;;;;;;;2.90;1.52;;;;;;;26.01;37.98;101990.78;4744371;30;21056;-66
2022/07/04 15:25:18;;;;;;;1.70;1.60;;;;;;;26.28;36.94;101984.66;4753309;30;20048;-70
2022/07/04 15:27:43;;;;;;;3.78;1.60;;;;;;;26.28;36.78;101984.66;4736787;30;20064;-68
2022/07/04 15:30:09;;;;;;;2.55;1.15;;;;;;;25.79;36.52;101998.81;4753804;30;20054;-67
2022/07/04 15:32:35;;;;;;;1.85;1.33;;;;;;;26.33;36.32;101990.22;4738098;30;20571;-67
2022/07/04 15:35:00;;;;;;;2.47;1.20;;;;;;;26.18;36.64;101998.31;4752584;30;20056;-66
2022/07/04 15:37:26;;;;;;;1.88;1.02;;;;;;;26.20;35.97;101988.28;4751655;30;20054;-70
2022/07/04 15:39:51;;;;;;;3.00;1.52;;;;;;;26.28;35.61;101995.34;4743716;30;20110;-71
2022/07/04 15:42:17;;;;;;;1.23;1.13;;;;;;;25.98;36.37;101994.69;4751033;30;20056;-71
2022/07/04 15:44:44;;;;;;;6.65;1.83;;;;;;;26.11;36.19;102002.81;4714392;30;20042;-70
2022/07/04 15:47:10;;;;;;;1.30;1.10;;;;;;;26.09;36.33;102004.03;4752946;30;20056;-70
2022/07/04 15:49:37;;;;;;;3.17;1.25;;;;;;;25.95;36.37;102002.25;4756616;30;20032;-70
2022/07/04 15:52:04;;;;;;;1.75;1.30;;;;;;;25.90;36.05;102001.00;4755177;30;20146;-70
2022/07/04 15:54:30;;;;;;;1.85;1.27;;;;;;;26.01;36.10;101999.63;4745066;30;20074;-71
2022/07/04 15:56:56;;;;;;;1.40;1.20;;;;;;;25.99;35.69;102009.66;4757371;29;21831;-71
2022/07/04 15:59:22;;;;;;;1.58;1.00;;;;;;;25.85;35.85;101997.22;4743657;30;20055;-71
2022/07/04 16:01:47;;;;;;;1.35;1.20;;;;;;;25.97;36.03;101993.03;4748266;30;20452;-72
2022/07/04 16:04:13;;;;;;;2.55;1.73;;;;;;;25.87;36.29;102012.06;4753793;30;20469;-71
2022/07/04 16:06:40;;;;;;;1.60;1.40;;;;;;;26.00;35.87;102003.31;4755472;30;20052;-71
2022/07/04 16:09:05;;;;;;;4.47;1.73;;;;;;;25.95;35.58;102004.91;4743532;30;20819;-71
2022/07/04 16:11:31;;;;;;;2.92;1.25;;;;;;;25.92;35.56;102006.13;4757011;30;20032;-71
2022/07/04 16:13:57;;;;;;;2.40;1.10;;;;;;;25.82;35.47;101998.44;4755902;30;20052;-71
2022/07/04 16:16:23;;;;;;;1.15;1.10;;;;;;;25.88;36.08;101992.34;4746203;30;20048;-77
2022/07/04 16:18:48;;;;;;;2.13;1.30;;;;;;;25.92;35.58;101998.13;4745066;30;20051;-77
2022/07/04 16:21:14;;;;;;;3.05;0.95;;;;;;;25.76;35.66;101993.88;4756161;30;20052;-77
2022/07/04 16:23:39;;;;;;;3.58;1.08;;;;;;;25.80;36.04;101987.13;4754309;30;20047;-77
2022/07/04 16:26:05;;;;;;;1.65;1.00;;;;;;;25.74;36.41;101987.91;4747454;30;20078;-77
2022/07/04 16:28:30;;;;;;;1.15;1.02;;;;;;;25.87;35.78;101989.88;4755940;30;20467;-75
2022/07/04 16:30:57;;;;;;;1.77;1.00;;;;;;;25.88;35.42;101996.88;4751652;30;20040;-76
2022/07/04 16:33:22;;;;;;;2.78;1.08;;;;;;;25.88;35.71;102000.38;4742212;30;21064;-75
2022/07/04 16:35:49;;;;;;;1.50;1.00;;;;;;;25.93;35.69;101994.44;4743789;30;20050;-76
2022/07/04 16:38:14;;;;;;;4.10;1.10;;;;;;;25.86;36.23;101988.22;4751741;30;20051;-76
2022/07/04 16:40:40;;;;;;;2.25;1.20;;;;;;;25.69;35.95;101990.34;4731502;30;20054;-76
2022/07/04 16:43:06;;;;;;;1.10;1.00;;;;;;;25.80;35.75;101988.97;4750686;30;20814;-77
2022/07/04 16:45:32;;;;;;;2.38;1.38;;;;;;;25.79;35.25;101987.31;4752312;30;20039;-77
2022/07/04 16:47:57;;;;;;;4.90;1.75;;;;;;;25.61;35.21;101975.22;4751635;30;20451;-76
2022/07/04 16:50:23;;;;;;;1.30;1.20;;;;;;;25.71;35.88;101982.13;4739791;30;20152;-77
2022/07/04 16:52:48;;;;;;;2.95;1.10;;;;;;;25.82;35.41;101986.94;4740922;30;20047;-77
2022/07/04 16:55:14;;;;;;;3.85;1.30;;;;;;;25.79;35.42;101990.00;4741615;30;20981;-75
2022/07/04 16:57:39;;;;;;;2.88;1.40;;;;;;;25.64;35.68;101987.34;4751014;30;20106;-76
2022/07/04 17:00:06;;;;;;;2.28;1.23;;;;;;;25.69;36.32;101995.66;4751735;30;20047;-76
2022/07/04 17:02:31;;;;;;;3.58;1.63;;;;;;;25.66;36.08;101995.16;4750118;30;20048;-79
2022/07/04 17:04:56;;;;;;;4.80;1.55;;;;;;;25.21;36.47;101992.66;4750012;30;20055;-79
2022/07/04 17:07:24;;;;;;;13.52;3.85;;;;;;;25.60;36.32;101991.44;4742828;30;20380;-78
2022/07/04 17:09:51;;;;;;;10.23;3.03;;;;;;;25.59;36.51;101987.94;4740010;30;20047;-79
2022/07/04 17:12:17;;;;;;;21.38;3.28;;;;;;;25.67;36.18;101992.31;4738077;30;20047;-79
2022/07/04 17:14:42;;;;;;;12.07;2.55;;;;;;;25.58;36.66;101988.13;4752652;30;20052;-78
2022/07/04 17:17:08;;;;;;;8.68;2.55;;;;;;;25.70;36.30;101989.31;4752497;30;20117;-77
2022/07/04 17:19:33;;;;;;;5.70;2.65;;;;;;;25.40;36.63;101991.22;4751578;30;20564;-78
2022/07/04 17:21:59;;;;;;;4.53;2.35;;;;;;;25.52;36.45;101979.06;4756382;30;20039;-77
2022/07/04 17:24:25;;;;;;;6.20;1.90;;;;;;;25.55;36.15;101986.66;4739880;30;20040;-76
2022/07/04 17:26:50;;;;;;;4.72;2.17;;;;;;;25.63;36.38;101982.22;4734014;30;20103;-75
2022/07/04 17:29:17;;;;;;;6.68;1.95;;;;;;;25.51;36.90;101981.91;4751343;30;20066;-76
2022/07/04 17:31:42;;;;;;;7.72;1.88;;;;;;;25.54;36.52;101976.19;4750040;30;20074;-76
2022/07/04 17:34:08;;;;;;;5.18;1.52;;;;;;;25.42;36.57;101988.38;4750568;30;20552;-77
2022/07/04 17:36:33;;;;;;;4.47;1.83;;;;;;;25.36;36.73;101984.63;4753141;30;20135;-76
2022/07/04 17:38:59;;;;;;;6.40;1.73;;;;;;;25.52;36.64;101989.72;4752415;30;20051;-75
2022/07/04 17:41:43;;;;;;;5.28;1.90;;;;;;;25.61;35.77;101993.91;4722104;30;20048;-76
2022/07/04 17:44:17;;;;;;;5.85;1.88;;;;;;;25.35;36.21;101984.81;4754682;30;20075;-76
2022/07/04 17:46:44;;;;;;;2.55;1.30;;;;;;;25.32;36.18;101987.88;4753361;30;20075;-77
2022/07/04 17:49:14;;;;;;;4.68;1.63;;;;;;;25.49;35.70;101989.25;4747875;30;20458;-74
2022/07/04 17:51:41;;;;;;;3.92;1.63;;;;;;;25.50;35.72;101985.59;4750451;30;20054;-75
2022/07/04 17:54:08;;;;;;;4.03;1.40;;;;;;;25.07;36.11;101985.50;4752973;30;20146;-76
2022/07/04 17:56:34;;;;;;;4.70;1.65;;;;;;;25.27;35.77;101985.75;4731410;30;20555;-76
2022/07/04 17:58:59;;;;;;;3.40;1.50;;;;;;;25.43;35.33;101985.50;4735941;30;20044;-75
2022/07/04 18:01:26;;;;;;;2.67;1.52;;;;;;;25.38;35.75;101982.59;4757103;30;20048;-74
2022/07/04 18:03:52;;;;;;;2.78;1.52;;;;;;;25.42;35.49;101983.88;4756205;30;20044;-75
2022/07/04 18:06:18;;;;;;;1.90;1.25;;;;;;;25.33;35.41;101987.69;4759593;30;20051;-75
2022/07/04 18:08:44;;;;;;;2.63;1.38;;;;;;;25.29;35.36;101981.03;4758281;30;20052;-74
2022/07/04 18:11:10;;;;;;;4.32;1.80;;;;;;;25.33;34.92;101986.84;4740187;30;20044;-74
2022/07/04 18:13:35;;;;;;;3.80;1.48;;;;;;;25.41;34.95;101982.22;4743720;30;20066;-74
2022/07/04 18:16:01;;;;;;;2.20;1.33;;;;;;;25.16;35.36;101987.06;4741703;30;20039;-74
2022/07/04 18:18:27;;;;;;;5.47;1.50;;;;;;;25.41;35.01;101979.53;4756998;30;20056;-74
2022/07/04 18:20:53;;;;;;;4.38;1.40;;;;;;;25.41;34.92;101978.72;4761809;30;20142;-74
2022/07/04 18:23:18;;;;;;;2.53;1.50;;;;;;;25.32;35.28;101996.69;4759669;30;20574;-74
2022/07/04 18:25:44;;;;;;;3.47;1.60;;;;;;;25.29;35.21;101989.03;4743423;30;20105;-75
2022/07/04 18:28:12;;;;;;;4.82;1.42;;;;;;;25.40;34.73;101982.41;4753804;30;20032;-74
2022/07/04 18:30:38;;;;;;;2.47;1.67;;;;;;;25.38;35.07;101990.59;4746739;30;20491;-74
2022/07/04 18:33:04;;;;;;;2.28;1.17;;;;;;;25.39;34.98;101988.75;4745845;30;20849;-74
2022/07/04 18:35:30;;;;;;;3.60;1.40;;;;;;;25.37;34.84;101996.94;4755227;30;20062;-74
2022/07/04 18:37:56;;;;;;;2.88;1.50;;;;;;;25.31;35.02;101997.69;4759946;30;20043;-73
2022/07/04 18:46:07;;;;;;;2.35;1.30;;;;;;;25.26;34.94;101998.25;4759650;30;20698;-74
2022/07/04 18:48:35;;;;;;;6.38;1.60;;;;;;;25.26;35.16;102002.75;4737632;30;20127;-73
2022/07/04 18:51:02;;;;;;;6.38;2.22;;;;;;;25.22;35.07;102004.97;4762802;30;20048;-72
2022/07/04 18:53:27;;;;;;;2.10;1.48;;;;;;;25.19;35.15;102000.03;4758880;30;21641;-73
2022/07/04 18:55:53;;;;;;;2.35;1.30;;;;;;;25.23;34.99;102009.28;4761146;30;20046;-73
2022/07/04 18:58:19;;;;;;;1.55;1.40;;;;;;;24.88;35.76;102008.19;4749448;30;20113;-73
2022/07/04 19:00:44;;;;;;;6.70;1.60;;;;;;;25.13;35.77;102008.75;4760070;30;20044;-72
2022/07/04 19:03:11;;;;;;;3.35;1.50;;;;;;;25.13;35.50;102011.41;4758777;30;20040;-72
2022/07/04 19:05:37;;;;;;;4.38;1.90;;;;;;;25.02;35.86;102014.56;4741611;30;20100;-72
2022/07/04 19:08:03;;;;;;;4.82;1.83;;;;;;;25.16;35.86;102016.41;4754666;30;20071;-72
2022/07/04 19:10:31;;;;;;;3.00;1.52;;;;;;;25.20;35.56;102012.34;4755409;30;20554;-72
2022/07/04 19:12:57;;;;;;;2.22;1.40;;;;;;;24.96;35.89;102018.78;4744647;30;20572;-72
2022/07/04 19:15:25;;;;;;;2.03;1.50;;;;;;;25.06;36.14;102020.34;4752406;30;20036;-72
2022/07/04 19:17:52;;;;;;;1.65;1.30;;;;;;;25.06;35.98;102023.00;4756676;30;20102;-72
2022/07/04 19:20:17;;;;;;;2.53;1.60;;;;;;;25.09;36.27;102022.63;4733342;30;20530;-72
2022/07/04 19:22:43;;;;;;;4.20;1.23;;;;;;;24.97;36.49;102025.75;4755313;30;20067;-73
2022/07/04 19:25:09;;;;;;;2.60;1.48;;;;;;;24.88;36.57;102029.53;4752952;30;20132;-71
2022/07/04 19:27:35;;;;;;;2.75;1.65;;;;;;;24.86;36.59;102042.19;4742304;30;20062;-71
2022/07/04 19:30:02;;;;;;;2.20;1.50;;;;;;;24.62;37.04;102024.66;4749886;30;20476;-70
2022/07/04 19:32:35;;;;;;;2.55;1.70;;;;;;;24.85;36.80;102037.88;4756491;30;20064;-71
2022/07/04 19:35:01;;;;;;;1.65;1.50;;;;;;;24.72;37.02;102037.69;4750531;30;20059;-70
2022/07/04 19:37:27;;;;;;;2.60;1.40;;;;;;;24.67;37.04;102035.59;4727255;30;20151;-70
2022/07/04 19:39:53;;;;;;;2.00;1.60;;;;;;;24.56;37.70;102030.69;4755034;30;20063;-71
2022/07/04 19:42:19;;;;;;;3.35;1.90;;;;;;;24.49;37.88;102039.59;4742253;30;20044;-77
2022/07/04 19:44:45;;;;;;;3.03;1.65;;;;;;;24.51;37.66;102040.25;4753934;30;20055;-77
2022/07/04 19:47:13;;;;;;;5.00;1.90;;;;;;;24.61;37.45;102040.81;4755780;30;20074;-78
2022/07/04 19:49:39;;;;;;;2.55;1.50;;;;;;;24.65;37.73;102037.59;4755307;30;20075;-79
2022/07/04 19:54:50;;;;;;;4.13;1.73;;;;;;;24.71;37.58;102047.53;4752684;30;20039;-78
2022/07/04 19:57:16;;;;;;;2.78;1.55;;;;;;;24.61;38.07;102041.66;4727586;30;21844;-77
2022/07/04 19:59:42;;;;;;;4.60;1.80;;;;;;;24.58;38.04;102055.31;4757478;30;20059;-78
2022/07/04 20:02:08;;;;;;;3.33;1.77;;;;;;;24.63;38.12;102060.94;4748774;30;20044;-72
2022/07/04 20:04:34;;;;;;;4.65;1.90;;;;;;;24.62;38.13;102058.47;4742951;30;20051;-75
2022/07/04 20:07:00;;;;;;;5.68;1.83;;;;;;;24.57;38.40;102061.66;4754381;30;20225;-77
2022/07/04 20:09:26;;;;;;;2.60;1.88;;;;;;;24.66;38.05;102065.06;4730760;30;20334;-70
2022/07/04 20:11:52;;;;;;;1.98;1.80;;;;;;;24.60;38.35;102063.97;4755214;30;20054;-76
2022/07/04 20:14:19;;;;;;;3.95;1.90;;;;;;;24.21;39.10;102064.09;4754177;30;20064;-76
2022/07/04 20:16:48;;;;;;;1.95;1.60;;;;;;;24.44;38.67;102064.13;4767743;29;20100;-76
2022/07/04 20:19:14;;;;;;;2.70;2.00;;;;;;;24.32;38.88;102055.72;4739919;30;20040;-77
2022/07/04 20:21:40;;;;;;;3.88;2.47;;;;;;;24.59;38.69;102064.13;4774188;29;20035;-75
2022/07/04 20:24:06;;;;;;;5.40;2.08;;;;;;;24.69;38.26;102070.03;4727460;30;20425;-75
2022/07/04 20:26:33;;;;;;;3.30;2.00;;;;;;;24.61;38.62;102076.28;4757204;30;20070;-73
2022/07/04 20:28:58;;;;;;;3.17;1.70;;;;;;;24.69;38.49;102072.69;4754148;30;20052;-73
2022/07/04 20:31:25;;;;;;;3.85;1.75;;;;;;;24.63;38.89;102079.59;4753896;30;20036;-76
2022/07/04 20:33:51;;;;;;;3.95;1.75;;;;;;;24.66;38.80;102086.38;4754474;30;20052;-74
2022/07/04 20:36:17;;;;;;;1.92;1.70;;;;;;;24.64;38.78;102086.56;4752550;30;20395;-71
2022/07/04 20:38:43;;;;;;;4.25;1.85;;;;;;;24.76;38.60;102091.41;4742914;30;20039;-73
2022/07/04 20:41:08;;;;;;;3.75;1.85;;;;;;;24.76;38.52;102086.91;4718754;30;20043;-74
2022/07/04 20:43:34;;;;;;;3.97;1.80;;;;;;;24.77;38.50;102091.25;4752363;30;20047;-73
2022/07/04 20:46:00;;;;;;;4.00;1.95;;;;;;;24.75;38.47;102087.09;4752226;30;20044;-71
2022/07/04 20:48:25;;;;;;;3.70;1.83;;;;;;;24.74;38.54;102086.28;4753472;30;20040;-73
2022/07/04 20:50:51;;;;;;;3.42;2.00;;;;;;;24.77;38.69;102087.75;4741092;30;20059;-77
2022/07/04 20:53:16;;;;;;;3.75;1.98;;;;;;;24.82;38.72;102083.56;4748557;30;20458;-74